sensor_id;sensor_type;location;lat;lon;timestamp;P1;durP1;ratioP1;P2;durP2;ratioP2
74689;SDS011;63221;51.860;-2.188;2023-03-04T00:00:27;14.77;;;8.30;;
74689;SDS011;63221;51.860;-2.188;2023-03-04T00:02:52;11.80;;;6.80;;
74689;SDS011;63221;51.860;-2.188;2023-03-04T00:05:18;14.17;;;7.60;;
74689;SDS011;63221;51.860;-2.188;2023-03-04T00:07:43;14.97;;;8.23;;
74689;SDS011;63221;51.860;-2.188;2023-03-04T00:10:09;13.85;;;7.32;;
74689;SDS011;63221;51.860;-2.188;2023-03-04T00:12:35;14.57;;;7.47;;
74689;SDS011;63221;51.860;-2.188;2023-03-04T00:15:00;15.25;;;7.97;;
74689;SDS011;63221;51.860;-2.188;2023-03-04T00:17:26;16.67;;;7.67;;
74689;SDS011;63221;51.860;-2.188;2023-03-04T00:19:54;13.32;;;7.20;;
74689;SDS011;63221;51.860;-2.188;2023-03-04T00:22:20;12.53;;;6.80;;
74689;SDS011;63221;51.860;-2.188;2023-03-04T00:24:45;13.05;;;6.72;;
74689;SDS011;63221;51.860;-2.188;2023-03-04T00:27:11;13.40;;;6.93;;
74689;SDS011;63221;51.860;-2.188;2023-03-04T00:29:36;15.13;;;7.30;;
74689;SDS011;63221;51.860;-2.188;2023-03-04T00:32:01;13.90;;;7.17;;
74689;SDS011;63221;51.860;-2.188;2023-03-04T00:34:27;14.20;;;8.50;;
74689;SDS011;63221;51.860;-2.188;2023-03-04T00:36:52;13.63;;;7.60;;
74689;SDS011;63221;51.860;-2.188;2023-03-04T00:39:18;16.23;;;8.23;;
74689;SDS011;63221;51.860;-2.188;2023-03-04T00:41:44;14.20;;;7.67;;
74689;SDS011;63221;51.860;-2.188;2023-03-04T00:44:09;14.63;;;8.43;;
74689;SDS011;63221;51.860;-2.188;2023-03-04T00:46:35;18.47;;;8.03;;
74689;SDS011;63221;51.860;-2.188;2023-03-04T00:49:00;14.35;;;7.45;;
74689;SDS011;63221;51.860;-2.188;2023-03-04T00:51:25;17.47;;;8.60;;
74689;SDS011;63221;51.860;-2.188;2023-03-04T00:53:51;15.20;;;7.97;;
74689;SDS011;63221;51.860;-2.188;2023-03-04T00:56:17;13.07;;;7.97;;
74689;SDS011;63221;51.860;-2.188;2023-03-04T00:58:42;17.45;;;8.48;;
74689;SDS011;63221;51.860;-2.188;2023-03-04T01:01:08;13.60;;;7.50;;
74689;SDS011;63221;51.860;-2.188;2023-03-04T01:03:33;15.60;;;8.38;;
74689;SDS011;63221;51.860;-2.188;2023-03-04T01:05:59;15.10;;;8.30;;
74689;SDS011;63221;51.860;-2.188;2023-03-04T01:08:24;16.33;;;8.13;;
74689;SDS011;63221;51.860;-2.188;2023-03-04T01:10:50;16.00;;;8.38;;
74689;SDS011;63221;51.860;-2.188;2023-03-04T01:13:16;14.63;;;7.97;;
74689;SDS011;63221;51.860;-2.188;2023-03-04T01:15:42;21.57;;;8.20;;
74689;SDS011;63221;51.860;-2.188;2023-03-04T01:18:07;17.52;;;7.57;;
74689;SDS011;63221;51.860;-2.188;2023-03-04T01:20:33;13.67;;;7.40;;
74689;SDS011;63221;51.860;-2.188;2023-03-04T01:22:58;10.50;;;6.33;;
74689;SDS011;63221;51.860;-2.188;2023-03-04T01:25:24;13.43;;;6.95;;
74689;SDS011;63221;51.860;-2.188;2023-03-04T01:27:49;13.53;;;6.00;;
74689;SDS011;63221;51.860;-2.188;2023-03-04T01:30:15;12.07;;;4.93;;
74689;SDS011;63221;51.860;-2.188;2023-03-04T01:32:40;11.07;;;4.93;;
74689;SDS011;63221;51.860;-2.188;2023-03-04T01:35:06;12.48;;;4.80;;
74689;SDS011;63221;51.860;-2.188;2023-03-04T01:37:32;11.33;;;4.50;;
74689;SDS011;63221;51.860;-2.188;2023-03-04T01:39:57;9.32;;;4.72;;
74689;SDS011;63221;51.860;-2.188;2023-03-04T01:42:23;9.30;;;5.23;;
74689;SDS011;63221;51.860;-2.188;2023-03-04T01:44:50;12.40;;;4.60;;
74689;SDS011;63221;51.860;-2.188;2023-03-04T01:47:16;11.80;;;5.63;;
74689;SDS011;63221;51.860;-2.188;2023-03-04T01:49:42;9.30;;;4.32;;
74689;SDS011;63221;51.860;-2.188;2023-03-04T01:52:11;11.50;;;3.90;;
74689;SDS011;63221;51.860;-2.188;2023-03-04T01:54:38;9.57;;;4.50;;
74689;SDS011;63221;51.860;-2.188;2023-03-04T01:57:20;10.02;;;3.72;;
74689;SDS011;63221;51.860;-2.188;2023-03-04T01:59:47;7.53;;;3.75;;
74689;SDS011;63221;51.860;-2.188;2023-03-04T02:02:12;10.67;;;3.67;;
74689;SDS011;63221;51.860;-2.188;2023-03-04T02:04:38;6.95;;;3.67;;
74689;SDS011;63221;51.860;-2.188;2023-03-04T02:07:05;10.48;;;4.15;;
74689;SDS011;63221;51.860;-2.188;2023-03-04T02:09:31;8.63;;;4.03;;
74689;SDS011;63221;51.860;-2.188;2023-03-04T02:11:57;11.00;;;4.55;;
74689;SDS011;63221;51.860;-2.188;2023-03-04T02:14:23;9.67;;;3.67;;
74689;SDS011;63221;51.860;-2.188;2023-03-04T02:16:49;9.68;;;3.10;;
74689;SDS011;63221;51.860;-2.188;2023-03-04T02:19:27;6.75;;;3.15;;
74689;SDS011;63221;51.860;-2.188;2023-03-04T02:22:00;7.83;;;3.70;;
74689;SDS011;63221;51.860;-2.188;2023-03-04T02:24:29;9.90;;;3.75;;
74689;SDS011;63221;51.860;-2.188;2023-03-04T02:26:57;6.37;;;2.67;;
74689;SDS011;63221;51.860;-2.188;2023-03-04T02:29:23;9.13;;;4.07;;
74689;SDS011;63221;51.860;-2.188;2023-03-04T02:31:49;10.03;;;3.70;;
74689;SDS011;63221;51.860;-2.188;2023-03-04T02:34:16;8.63;;;3.70;;
74689;SDS011;63221;51.860;-2.188;2023-03-04T02:36:47;11.98;;;3.40;;
74689;SDS011;63221;51.860;-2.188;2023-03-04T02:41:44;10.63;;;4.07;;
74689;SDS011;63221;51.860;-2.188;2023-03-04T02:44:29;9.38;;;3.83;;
74689;SDS011;63221;51.860;-2.188;2023-03-04T02:46:56;9.60;;;3.60;;
74689;SDS011;63221;51.860;-2.188;2023-03-04T02:49:22;9.15;;;3.38;;
74689;SDS011;63221;51.860;-2.188;2023-03-04T02:51:56;7.90;;;3.70;;
74689;SDS011;63221;51.860;-2.188;2023-03-04T02:54:43;9.65;;;3.83;;
74689;SDS011;63221;51.860;-2.188;2023-03-04T02:57:09;9.90;;;4.28;;
74689;SDS011;63221;51.860;-2.188;2023-03-04T02:59:36;11.40;;;4.13;;
74689;SDS011;63221;51.860;-2.188;2023-03-04T03:02:02;9.63;;;3.75;;
74689;SDS011;63221;51.860;-2.188;2023-03-04T03:04:28;9.73;;;4.35;;
74689;SDS011;63221;51.860;-2.188;2023-03-04T03:06:53;10.03;;;4.20;;
74689;SDS011;63221;51.860;-2.188;2023-03-04T03:09:19;9.70;;;4.07;;
74689;SDS011;63221;51.860;-2.188;2023-03-04T03:11:45;12.63;;;4.20;;
74689;SDS011;63221;51.860;-2.188;2023-03-04T03:14:10;8.90;;;4.53;;
74689;SDS011;63221;51.860;-2.188;2023-03-04T03:16:36;15.98;;;5.72;;
74689;SDS011;63221;51.860;-2.188;2023-03-04T03:19:02;11.27;;;4.80;;
74689;SDS011;63221;51.860;-2.188;2023-03-04T03:21:27;12.15;;;5.38;;
74689;SDS011;63221;51.860;-2.188;2023-03-04T03:23:52;16.13;;;4.40;;
74689;SDS011;63221;51.860;-2.188;2023-03-04T03:26:18;9.33;;;4.30;;
74689;SDS011;63221;51.860;-2.188;2023-03-04T03:28:44;11.57;;;4.65;;
74689;SDS011;63221;51.860;-2.188;2023-03-04T03:31:10;11.97;;;4.80;;
74689;SDS011;63221;51.860;-2.188;2023-03-04T03:33:35;8.85;;;3.92;;
74689;SDS011;63221;51.860;-2.188;2023-03-04T03:36:01;11.47;;;4.97;;
74689;SDS011;63221;51.860;-2.188;2023-03-04T03:38:26;10.97;;;4.67;;
74689;SDS011;63221;51.860;-2.188;2023-03-04T03:40:52;13.52;;;4.38;;
74689;SDS011;63221;51.860;-2.188;2023-03-04T03:43:17;9.63;;;4.33;;
74689;SDS011;63221;51.860;-2.188;2023-03-04T03:45:43;11.73;;;4.47;;
74689;SDS011;63221;51.860;-2.188;2023-03-04T03:48:08;12.48;;;4.75;;
74689;SDS011;63221;51.860;-2.188;2023-03-04T03:50:34;12.60;;;3.97;;
74689;SDS011;63221;51.860;-2.188;2023-03-04T03:52:59;13.10;;;3.63;;
74689;SDS011;63221;51.860;-2.188;2023-03-04T03:55:25;6.17;;;3.27;;
74689;SDS011;63221;51.860;-2.188;2023-03-04T03:57:50;8.50;;;3.75;;
74689;SDS011;63221;51.860;-2.188;2023-03-04T04:00:16;7.00;;;3.13;;
74689;SDS011;63221;51.860;-2.188;2023-03-04T04:02:42;6.70;;;3.13;;
74689;SDS011;63221;51.860;-2.188;2023-03-04T04:05:07;10.70;;;3.43;;
74689;SDS011;63221;51.860;-2.188;2023-03-04T04:07:34;7.72;;;3.55;;
74689;SDS011;63221;51.860;-2.188;2023-03-04T04:10:00;8.20;;;2.63;;
74689;SDS011;63221;51.860;-2.188;2023-03-04T04:12:25;5.30;;;2.53;;
74689;SDS011;63221;51.860;-2.188;2023-03-04T04:14:50;6.50;;;3.10;;
74689;SDS011;63221;51.860;-2.188;2023-03-04T04:17:16;13.03;;;2.67;;
74689;SDS011;63221;51.860;-2.188;2023-03-04T04:19:41;9.10;;;3.30;;
74689;SDS011;63221;51.860;-2.188;2023-03-04T04:22:07;6.30;;;2.23;;
74689;SDS011;63221;51.860;-2.188;2023-03-04T04:24:35;5.68;;;2.80;;
74689;SDS011;63221;51.860;-2.188;2023-03-04T04:27:01;8.97;;;2.47;;
74689;SDS011;63221;51.860;-2.188;2023-03-04T04:29:27;10.65;;;2.88;;
74689;SDS011;63221;51.860;-2.188;2023-03-04T04:31:52;6.47;;;2.60;;
74689;SDS011;63221;51.860;-2.188;2023-03-04T04:34:18;7.20;;;2.78;;
74689;SDS011;63221;51.860;-2.188;2023-03-04T04:36:43;6.90;;;2.33;;
74689;SDS011;63221;51.860;-2.188;2023-03-04T04:39:08;5.73;;;2.57;;
74689;SDS011;63221;51.860;-2.188;2023-03-04T04:41:38;8.00;;;2.70;;
74689;SDS011;63221;51.860;-2.188;2023-03-04T04:44:05;5.28;;;2.63;;
74689;SDS011;63221;51.860;-2.188;2023-03-04T04:46:30;6.10;;;2.30;;
74689;SDS011;63221;51.860;-2.188;2023-03-04T04:48:56;7.18;;;2.72;;
74689;SDS011;63221;51.860;-2.188;2023-03-04T04:51:21;6.77;;;1.93;;
74689;SDS011;63221;51.860;-2.188;2023-03-04T04:53:47;6.10;;;2.57;;
74689;SDS011;63221;51.860;-2.188;2023-03-04T04:56:17;6.30;;;2.67;;
74689;SDS011;63221;51.860;-2.188;2023-03-04T04:58:44;5.50;;;2.28;;
74689;SDS011;63221;51.860;-2.188;2023-03-04T05:01:10;4.90;;;2.40;;
74689;SDS011;63221;51.860;-2.188;2023-03-04T05:03:36;6.55;;;2.80;;
74689;SDS011;63221;51.860;-2.188;2023-03-04T05:06:02;7.00;;;2.80;;
74689;SDS011;63221;51.860;-2.188;2023-03-04T05:08:28;4.70;;;1.98;;
74689;SDS011;63221;51.860;-2.188;2023-03-04T05:10:54;5.47;;;2.85;;
74689;SDS011;63221;51.860;-2.188;2023-03-04T05:13:19;7.40;;;2.93;;
74689;SDS011;63221;51.860;-2.188;2023-03-04T05:15:45;5.97;;;2.47;;
74689;SDS011;63221;51.860;-2.188;2023-03-04T05:18:11;6.32;;;3.08;;
74689;SDS011;63221;51.860;-2.188;2023-03-04T05:20:36;10.13;;;3.23;;
74689;SDS011;63221;51.860;-2.188;2023-03-04T05:23:02;6.18;;;2.47;;
74689;SDS011;63221;51.860;-2.188;2023-03-04T05:25:27;8.33;;;2.77;;
74689;SDS011;63221;51.860;-2.188;2023-03-04T05:27:53;4.87;;;2.87;;
74689;SDS011;63221;51.860;-2.188;2023-03-04T05:30:18;6.68;;;3.15;;
74689;SDS011;63221;51.860;-2.188;2023-03-04T05:32:44;6.23;;;2.70;;
74689;SDS011;63221;51.860;-2.188;2023-03-04T05:35:09;11.77;;;3.20;;
74689;SDS011;63221;51.860;-2.188;2023-03-04T05:37:34;8.53;;;3.67;;
74689;SDS011;63221;51.860;-2.188;2023-03-04T05:40:00;8.27;;;3.20;;
74689;SDS011;63221;51.860;-2.188;2023-03-04T05:42:25;6.40;;;3.53;;
74689;SDS011;63221;51.860;-2.188;2023-03-04T05:44:51;9.30;;;3.30;;
74689;SDS011;63221;51.860;-2.188;2023-03-04T05:47:16;8.87;;;2.80;;
74689;SDS011;63221;51.860;-2.188;2023-03-04T05:49:41;8.20;;;3.00;;
74689;SDS011;63221;51.860;-2.188;2023-03-04T05:52:08;8.05;;;2.72;;
74689;SDS011;63221;51.860;-2.188;2023-03-04T05:54:34;9.65;;;3.50;;
74689;SDS011;63221;51.860;-2.188;2023-03-04T05:57:00;6.20;;;2.30;;
74689;SDS011;63221;51.860;-2.188;2023-03-04T05:59:26;8.15;;;3.15;;
74689;SDS011;63221;51.860;-2.188;2023-03-04T06:01:52;6.55;;;2.20;;
74689;SDS011;63221;51.860;-2.188;2023-03-04T06:04:17;9.17;;;2.60;;
74689;SDS011;63221;51.860;-2.188;2023-03-04T06:06:43;6.97;;;2.60;;
74689;SDS011;63221;51.860;-2.188;2023-03-04T06:09:10;6.55;;;2.42;;
74689;SDS011;63221;51.860;-2.188;2023-03-04T06:11:36;4.73;;;2.33;;
74689;SDS011;63221;51.860;-2.188;2023-03-04T06:14:01;6.90;;;2.27;;
74689;SDS011;63221;51.860;-2.188;2023-03-04T06:16:27;6.20;;;2.37;;
74689;SDS011;63221;51.860;-2.188;2023-03-04T06:18:52;6.87;;;3.03;;
74689;SDS011;63221;51.860;-2.188;2023-03-04T06:21:18;8.60;;;3.42;;
74689;SDS011;63221;51.860;-2.188;2023-03-04T06:23:43;8.93;;;2.80;;
74689;SDS011;63221;51.860;-2.188;2023-03-04T06:26:09;8.27;;;3.53;;
74689;SDS011;63221;51.860;-2.188;2023-03-04T06:28:39;11.60;;;3.93;;
74689;SDS011;63221;51.860;-2.188;2023-03-04T06:31:05;9.30;;;3.45;;
74689;SDS011;63221;51.860;-2.188;2023-03-04T06:33:31;10.20;;;3.77;;
74689;SDS011;63221;51.860;-2.188;2023-03-04T06:35:56;6.00;;;2.53;;
74689;SDS011;63221;51.860;-2.188;2023-03-04T06:38:22;9.23;;;4.07;;
74689;SDS011;63221;51.860;-2.188;2023-03-04T06:40:48;10.75;;;5.07;;
74689;SDS011;63221;51.860;-2.188;2023-03-04T06:43:13;12.93;;;5.77;;
74689;SDS011;63221;51.860;-2.188;2023-03-04T06:45:38;13.07;;;5.70;;
74689;SDS011;63221;51.860;-2.188;2023-03-04T06:48:04;11.73;;;5.00;;
74689;SDS011;63221;51.860;-2.188;2023-03-04T06:50:30;13.30;;;6.40;;
74689;SDS011;63221;51.860;-2.188;2023-03-04T06:52:56;13.77;;;5.87;;
74689;SDS011;63221;51.860;-2.188;2023-03-04T06:55:21;15.50;;;5.68;;
74689;SDS011;63221;51.860;-2.188;2023-03-04T06:57:47;13.87;;;5.93;;
74689;SDS011;63221;51.860;-2.188;2023-03-04T07:00:12;13.80;;;4.60;;
74689;SDS011;63221;51.860;-2.188;2023-03-04T07:02:38;16.85;;;5.72;;
74689;SDS011;63221;51.860;-2.188;2023-03-04T07:05:04;14.00;;;5.13;;
74689;SDS011;63221;51.860;-2.188;2023-03-04T07:07:29;11.35;;;5.22;;
74689;SDS011;63221;51.860;-2.188;2023-03-04T07:09:55;9.07;;;4.60;;
74689;SDS011;63221;51.860;-2.188;2023-03-04T07:12:20;12.80;;;4.90;;
74689;SDS011;63221;51.860;-2.188;2023-03-04T07:14:46;9.77;;;4.20;;
74689;SDS011;63221;51.860;-2.188;2023-03-04T07:17:11;13.93;;;4.83;;
74689;SDS011;63221;51.860;-2.188;2023-03-04T07:19:37;9.87;;;4.00;;
74689;SDS011;63221;51.860;-2.188;2023-03-04T07:22:02;12.27;;;4.23;;
74689;SDS011;63221;51.860;-2.188;2023-03-04T07:24:27;11.50;;;4.50;;
74689;SDS011;63221;51.860;-2.188;2023-03-04T07:26:53;11.33;;;4.77;;
74689;SDS011;63221;51.860;-2.188;2023-03-04T07:29:18;10.97;;;4.43;;
74689;SDS011;63221;51.860;-2.188;2023-03-04T07:31:44;8.43;;;4.33;;
74689;SDS011;63221;51.860;-2.188;2023-03-04T07:34:11;10.88;;;4.05;;
74689;SDS011;63221;51.860;-2.188;2023-03-04T07:36:37;9.70;;;4.30;;
74689;SDS011;63221;51.860;-2.188;2023-03-04T07:39:03;11.38;;;4.53;;
74689;SDS011;63221;51.860;-2.188;2023-03-04T07:41:29;9.33;;;3.60;;
74689;SDS011;63221;51.860;-2.188;2023-03-04T07:43:55;11.80;;;4.15;;
74689;SDS011;63221;51.860;-2.188;2023-03-04T07:46:21;7.57;;;3.83;;
74689;SDS011;63221;51.860;-2.188;2023-03-04T07:48:47;12.23;;;3.93;;
74689;SDS011;63221;51.860;-2.188;2023-03-04T07:53:43;11.80;;;4.43;;
74689;SDS011;63221;51.860;-2.188;2023-03-04T07:56:11;10.57;;;3.87;;
74689;SDS011;63221;51.860;-2.188;2023-03-04T07:58:38;9.73;;;3.53;;
74689;SDS011;63221;51.860;-2.188;2023-03-04T08:01:07;9.93;;;4.10;;
74689;SDS011;63221;51.860;-2.188;2023-03-04T08:03:35;8.80;;;3.80;;
74689;SDS011;63221;51.860;-2.188;2023-03-04T08:06:03;10.45;;;3.90;;
74689;SDS011;63221;51.860;-2.188;2023-03-04T08:08:29;11.53;;;4.37;;
74689;SDS011;63221;51.860;-2.188;2023-03-04T08:10:55;12.30;;;5.05;;
74689;SDS011;63221;51.860;-2.188;2023-03-04T08:13:20;8.33;;;3.43;;
74689;SDS011;63221;51.860;-2.188;2023-03-04T08:15:45;11.53;;;4.30;;
74689;SDS011;63221;51.860;-2.188;2023-03-04T08:18:11;10.03;;;3.53;;
74689;SDS011;63221;51.860;-2.188;2023-03-04T08:20:36;9.93;;;4.03;;
74689;SDS011;63221;51.860;-2.188;2023-03-04T08:23:05;10.23;;;3.42;;
74689;SDS011;63221;51.860;-2.188;2023-03-04T08:25:31;9.20;;;3.80;;
74689;SDS011;63221;51.860;-2.188;2023-03-04T08:27:56;12.03;;;4.60;;
74689;SDS011;63221;51.860;-2.188;2023-03-04T08:30:22;9.32;;;4.13;;
74689;SDS011;63221;51.860;-2.188;2023-03-04T08:32:48;8.63;;;3.43;;
74689;SDS011;63221;51.860;-2.188;2023-03-04T08:35:13;8.53;;;4.07;;
74689;SDS011;63221;51.860;-2.188;2023-03-04T08:37:39;11.17;;;3.67;;
74689;SDS011;63221;51.860;-2.188;2023-03-04T08:40:04;7.67;;;3.67;;
74689;SDS011;63221;51.860;-2.188;2023-03-04T08:42:30;8.30;;;4.03;;
74689;SDS011;63221;51.860;-2.188;2023-03-04T08:44:56;10.50;;;4.33;;
74689;SDS011;63221;51.860;-2.188;2023-03-04T08:47:21;7.90;;;4.05;;
74689;SDS011;63221;51.860;-2.188;2023-03-04T08:49:46;11.93;;;4.10;;
74689;SDS011;63221;51.860;-2.188;2023-03-04T08:52:12;12.87;;;4.20;;
74689;SDS011;63221;51.860;-2.188;2023-03-04T08:54:37;8.50;;;3.80;;
74689;SDS011;63221;51.860;-2.188;2023-03-04T08:57:03;12.90;;;4.15;;
74689;SDS011;63221;51.860;-2.188;2023-03-04T08:59:28;9.70;;;4.50;;
74689;SDS011;63221;51.860;-2.188;2023-03-04T09:01:53;7.57;;;3.60;;
74689;SDS011;63221;51.860;-2.188;2023-03-04T09:04:19;12.53;;;4.80;;
74689;SDS011;63221;51.860;-2.188;2023-03-04T09:06:44;13.25;;;4.53;;
74689;SDS011;63221;51.860;-2.188;2023-03-04T09:09:10;12.03;;;4.30;;
74689;SDS011;63221;51.860;-2.188;2023-03-04T09:11:35;11.00;;;4.57;;
74689;SDS011;63221;51.860;-2.188;2023-03-04T09:14:01;10.90;;;4.73;;
74689;SDS011;63221;51.860;-2.188;2023-03-04T09:16:26;12.23;;;5.32;;
74689;SDS011;63221;51.860;-2.188;2023-03-04T09:18:52;15.57;;;4.93;;
74689;SDS011;63221;51.860;-2.188;2023-03-04T09:21:17;16.60;;;5.70;;
74689;SDS011;63221;51.860;-2.188;2023-03-04T09:23:43;11.07;;;5.23;;
74689;SDS011;63221;51.860;-2.188;2023-03-04T09:26:12;11.27;;;5.32;;
74689;SDS011;63221;51.860;-2.188;2023-03-04T09:28:39;14.43;;;5.53;;
74689;SDS011;63221;51.860;-2.188;2023-03-04T09:31:09;11.23;;;4.78;;
74689;SDS011;63221;51.860;-2.188;2023-03-04T09:33:36;10.83;;;4.97;;
74689;SDS011;63221;51.860;-2.188;2023-03-04T09:36:01;18.08;;;5.57;;
74689;SDS011;63221;51.860;-2.188;2023-03-04T09:38:26;11.73;;;4.70;;
74689;SDS011;63221;51.860;-2.188;2023-03-04T09:40:52;13.97;;;5.83;;
74689;SDS011;63221;51.860;-2.188;2023-03-04T09:43:18;12.97;;;5.40;;
74689;SDS011;63221;51.860;-2.188;2023-03-04T09:45:48;8.88;;;4.68;;
74689;SDS011;63221;51.860;-2.188;2023-03-04T09:48:16;11.35;;;5.13;;
74689;SDS011;63221;51.860;-2.188;2023-03-04T09:50:55;14.25;;;5.90;;
74689;SDS011;63221;51.860;-2.188;2023-03-04T09:53:28;9.18;;;4.32;;
74689;SDS011;63221;51.860;-2.188;2023-03-04T09:56:02;11.93;;;4.53;;
74689;SDS011;63221;51.860;-2.188;2023-03-04T10:04:02;13.07;;;5.32;;
74689;SDS011;63221;51.860;-2.188;2023-03-04T10:06:29;12.32;;;4.90;;
74689;SDS011;63221;51.860;-2.188;2023-03-04T10:09:03;13.20;;;6.07;;
74689;SDS011;63221;51.860;-2.188;2023-03-04T10:19:29;10.43;;;4.88;;
74689;SDS011;63221;51.860;-2.188;2023-03-04T10:22:02;13.67;;;5.27;;
74689;SDS011;63221;51.860;-2.188;2023-03-04T10:24:55;10.05;;;4.15;;
74689;SDS011;63221;51.860;-2.188;2023-03-04T10:27:21;9.85;;;4.45;;
74689;SDS011;63221;51.860;-2.188;2023-03-04T10:29:47;10.70;;;5.55;;
74689;SDS011;63221;51.860;-2.188;2023-03-04T10:32:14;12.57;;;4.60;;
74689;SDS011;63221;51.860;-2.188;2023-03-04T10:34:40;12.38;;;4.80;;
74689;SDS011;63221;51.860;-2.188;2023-03-04T10:37:06;13.07;;;5.20;;
74689;SDS011;63221;51.860;-2.188;2023-03-04T10:39:35;11.75;;;5.28;;
74689;SDS011;63221;51.860;-2.188;2023-03-04T10:42:02;13.18;;;4.85;;
74689;SDS011;63221;51.860;-2.188;2023-03-04T10:44:57;9.80;;;4.75;;
74689;SDS011;63221;51.860;-2.188;2023-03-04T10:47:25;10.03;;;4.50;;
74689;SDS011;63221;51.860;-2.188;2023-03-04T10:49:55;11.18;;;4.60;;
74689;SDS011;63221;51.860;-2.188;2023-03-04T10:52:25;11.05;;;5.38;;
74689;SDS011;63221;51.860;-2.188;2023-03-04T10:55:01;15.35;;;4.90;;
74689;SDS011;63221;51.860;-2.188;2023-03-04T10:57:35;9.45;;;5.07;;
74689;SDS011;63221;51.860;-2.188;2023-03-04T11:02:47;11.35;;;4.47;;
74689;SDS011;63221;51.860;-2.188;2023-03-04T11:05:23;14.60;;;4.65;;
74689;SDS011;63221;51.860;-2.188;2023-03-04T11:07:53;10.40;;;4.82;;
74689;SDS011;63221;51.860;-2.188;2023-03-04T11:12:55;14.00;;;5.00;;
74689;SDS011;63221;51.860;-2.188;2023-03-04T11:15:25;11.00;;;5.80;;
74689;SDS011;63221;51.860;-2.188;2023-03-04T11:17:54;13.65;;;5.22;;
74689;SDS011;63221;51.860;-2.188;2023-03-04T11:20:32;12.95;;;4.80;;
74689;SDS011;63221;51.860;-2.188;2023-03-04T11:23:06;9.38;;;3.97;;
74689;SDS011;63221;51.860;-2.188;2023-03-04T11:25:46;13.07;;;4.30;;
74689;SDS011;63221;51.860;-2.188;2023-03-04T11:28:15;12.02;;;4.07;;
74689;SDS011;63221;51.860;-2.188;2023-03-04T11:30:53;9.45;;;4.07;;
74689;SDS011;63221;51.860;-2.188;2023-03-04T11:33:24;9.82;;;4.13;;
74689;SDS011;63221;51.860;-2.188;2023-03-04T11:35:54;10.65;;;4.25;;
74689;SDS011;63221;51.860;-2.188;2023-03-04T11:38:32;8.33;;;3.77;;
74689;SDS011;63221;51.860;-2.188;2023-03-04T11:44:06;7.07;;;3.95;;
74689;SDS011;63221;51.860;-2.188;2023-03-04T12:00:38;15.70;;;4.63;;
74689;SDS011;63221;51.860;-2.188;2023-03-04T12:03:23;13.43;;;5.38;;
74689;SDS011;63221;51.860;-2.188;2023-03-04T12:06:11;13.17;;;5.57;;
74689;SDS011;63221;51.860;-2.188;2023-03-04T12:13:55;11.32;;;4.18;;
74689;SDS011;63221;51.860;-2.188;2023-03-04T12:43:56;10.98;;;5.22;;
74689;SDS011;63221;51.860;-2.188;2023-03-04T13:03:11;12.30;;;5.40;;
74689;SDS011;63221;51.860;-2.188;2023-03-04T13:38:39;10.90;;;5.25;;
74689;SDS011;63221;51.860;-2.188;2023-03-04T13:41:09;14.10;;;5.57;;
74689;SDS011;63221;51.860;-2.188;2023-03-04T13:43:52;7.82;;;4.35;;
74689;SDS011;63221;51.860;-2.188;2023-03-04T13:51:16;13.10;;;5.55;;
74689;SDS011;63221;51.860;-2.188;2023-03-04T13:58:49;12.07;;;4.87;;
74689;SDS011;63221;51.860;-2.188;2023-03-04T14:01:36;11.98;;;5.38;;
74689;SDS011;63221;51.860;-2.188;2023-03-04T14:06:47;8.32;;;4.43;;
74689;SDS011;63221;51.860;-2.188;2023-03-04T14:09:20;12.45;;;5.40;;
74689;SDS011;63221;51.860;-2.188;2023-03-04T14:11:47;8.32;;;4.93;;
74689;SDS011;63221;51.860;-2.188;2023-03-04T14:14:19;9.85;;;5.63;;
74689;SDS011;63221;51.860;-2.188;2023-03-04T14:16:48;7.77;;;4.10;;
74689;SDS011;63221;51.860;-2.188;2023-03-04T14:19:25;9.57;;;4.35;;
74689;SDS011;63221;51.860;-2.188;2023-03-04T14:21:52;11.73;;;5.60;;
74689;SDS011;63221;51.860;-2.188;2023-03-04T14:24:19;13.15;;;5.00;;
74689;SDS011;63221;51.860;-2.188;2023-03-04T14:26:46;9.95;;;5.40;;
74689;SDS011;63221;51.860;-2.188;2023-03-04T14:29:23;7.50;;;4.07;;
74689;SDS011;63221;51.860;-2.188;2023-03-04T14:31:51;9.45;;;4.53;;
74689;SDS011;63221;51.860;-2.188;2023-03-04T14:34:24;10.40;;;4.78;;
74689;SDS011;63221;51.860;-2.188;2023-03-04T14:36:56;9.70;;;4.00;;
74689;SDS011;63221;51.860;-2.188;2023-03-04T14:39:21;11.03;;;4.77;;
74689;SDS011;63221;51.860;-2.188;2023-03-04T14:41:50;12.43;;;5.20;;
74689;SDS011;63221;51.860;-2.188;2023-03-04T14:44:38;10.50;;;4.88;;
74689;SDS011;63221;51.860;-2.188;2023-03-04T14:47:08;8.68;;;5.15;;
74689;SDS011;63221;51.860;-2.188;2023-03-04T14:49:35;8.70;;;5.20;;
74689;SDS011;63221;51.860;-2.188;2023-03-04T14:52:01;8.90;;;4.30;;
74689;SDS011;63221;51.860;-2.188;2023-03-04T14:54:37;9.75;;;4.03;;
74689;SDS011;63221;51.860;-2.188;2023-03-04T14:57:23;11.02;;;4.43;;
74689;SDS011;63221;51.860;-2.188;2023-03-04T14:59:51;7.93;;;4.20;;
74689;SDS011;63221;51.860;-2.188;2023-03-04T15:02:24;11.35;;;4.38;;
74689;SDS011;63221;51.860;-2.188;2023-03-04T15:04:56;9.80;;;5.20;;
74689;SDS011;63221;51.860;-2.188;2023-03-04T15:07:33;7.30;;;4.47;;
74689;SDS011;63221;51.860;-2.188;2023-03-04T15:10:02;8.32;;;4.82;;
74689;SDS011;63221;51.860;-2.188;2023-03-04T15:12:30;11.80;;;5.53;;
74689;SDS011;63221;51.860;-2.188;2023-03-04T15:14:58;9.85;;;4.90;;
74689;SDS011;63221;51.860;-2.188;2023-03-04T15:20:16;10.95;;;5.03;;
74689;SDS011;63221;51.860;-2.188;2023-03-04T15:25:13;11.90;;;5.33;;
74689;SDS011;63221;51.860;-2.188;2023-03-04T15:27:41;12.63;;;6.13;;
74689;SDS011;63221;51.860;-2.188;2023-03-04T15:30:13;10.07;;;5.13;;
74689;SDS011;63221;51.860;-2.188;2023-03-04T15:32:44;13.55;;;5.38;;
74689;SDS011;63221;51.860;-2.188;2023-03-04T15:35:15;9.73;;;5.53;;
74689;SDS011;63221;51.860;-2.188;2023-03-04T15:37:41;18.20;;;7.05;;
74689;SDS011;63221;51.860;-2.188;2023-03-04T15:40:41;14.70;;;5.05;;
74689;SDS011;63221;51.860;-2.188;2023-03-04T15:43:02;11.40;;;6.13;;
74689;SDS011;63221;51.860;-2.188;2023-03-04T15:45:33;13.03;;;7.13;;
74689;SDS011;63221;51.860;-2.188;2023-03-04T15:48:01;16.02;;;6.80;;
74689;SDS011;63221;51.860;-2.188;2023-03-04T15:50:32;12.40;;;5.10;;
74689;SDS011;63221;51.860;-2.188;2023-03-04T15:52:59;14.93;;;5.43;;
74689;SDS011;63221;51.860;-2.188;2023-03-04T15:55:27;13.27;;;5.57;;
74689;SDS011;63221;51.860;-2.188;2023-03-04T15:57:54;9.27;;;4.43;;
74689;SDS011;63221;51.860;-2.188;2023-03-04T16:00:21;10.65;;;4.70;;
74689;SDS011;63221;51.860;-2.188;2023-03-04T16:02:47;11.65;;;5.07;;
74689;SDS011;63221;51.860;-2.188;2023-03-04T16:05:13;12.73;;;4.70;;
74689;SDS011;63221;51.860;-2.188;2023-03-04T16:07:45;12.43;;;4.97;;
74689;SDS011;63221;51.860;-2.188;2023-03-04T16:10:24;11.77;;;5.13;;
74689;SDS011;63221;51.860;-2.188;2023-03-04T16:12:52;15.43;;;4.10;;
74689;SDS011;63221;51.860;-2.188;2023-03-04T16:15:20;11.02;;;4.57;;
74689;SDS011;63221;51.860;-2.188;2023-03-04T16:17:47;8.83;;;5.00;;
74689;SDS011;63221;51.860;-2.188;2023-03-04T16:20:15;12.27;;;3.72;;
74689;SDS011;63221;51.860;-2.188;2023-03-04T16:22:44;12.77;;;4.15;;
74689;SDS011;63221;51.860;-2.188;2023-03-04T16:25:12;11.75;;;5.10;;
74689;SDS011;63221;51.860;-2.188;2023-03-04T16:27:39;7.75;;;4.20;;
74689;SDS011;63221;51.860;-2.188;2023-03-04T16:30:07;10.50;;;4.80;;
74689;SDS011;63221;51.860;-2.188;2023-03-04T16:32:54;9.27;;;4.43;;
74689;SDS011;63221;51.860;-2.188;2023-03-04T16:35:20;8.38;;;4.82;;
74689;SDS011;63221;51.860;-2.188;2023-03-04T16:37:50;8.70;;;4.97;;
74689;SDS011;63221;51.860;-2.188;2023-03-04T16:40:17;10.90;;;3.97;;
74689;SDS011;63221;51.860;-2.188;2023-03-04T16:42:45;10.68;;;4.45;;
74689;SDS011;63221;51.860;-2.188;2023-03-04T16:45:14;8.43;;;4.20;;
74689;SDS011;63221;51.860;-2.188;2023-03-04T16:47:41;9.27;;;3.53;;
74689;SDS011;63221;51.860;-2.188;2023-03-04T16:50:08;9.05;;;4.03;;